Siegle, Louisiana
Current Conditions -  °F | °C
As of 1:53 PM on Friday 21 Nov 2014 (Local Time) from KMLU Reporting Station
Overcast Overcast  
Wind Chill: 67°   Ceiling: 7500
Heat Index: 67°   Visibility: 10mi
Dew Point: 49°   Wind: 7mph
Humidity: 52%   Direction: 150°SSE
Pressure: 30.21"   Gusts: NA
Location:  32.3932°N, 92.2204°W
Report Text: KMLU 211953Z 15006KT 10SM OVC075 19/09 A3021 RMK AO2 SLP230 T01940094
Loading
Personal Weather Stations






























Interactive Weather Map New forecast layout! Learn more

10-Day Weather Forecast

Advertisements
Track Severe Weather on mobile